Time;durP1;ratioP1;P1;durP2;ratioP2;P2;SDS_P1;SDS_P2;PMS_P1;PMS_P2;Temp;Humidity;BMP_temperature;BMP_pressure;BME280_temperature;BME280_humidity;BME280_pressure;Samples;Min_cycle;Max_cycle;Signal;HPM_P1;HPM_P2
2022/11/09 00:00:49;;;;;;;4.25;1.95;;;;;;;17.60;55.11;100403.75;5071900;28;20114;-71
2022/11/09 00:03:15;;;;;;;7.68;2.22;;;;;;;17.59;55.02;100396.63;5073217;28;20041;-70
2022/11/09 00:05:52;;;;;;;5.63;1.98;;;;;;;17.59;55.00;100403.94;5071508;28;20041;-70
2022/11/09 00:08:19;;;;;;;3.30;1.83;;;;;;;17.58;55.05;100404.94;5071435;28;20465;-70
2022/11/09 00:10:45;;;;;;;5.30;1.80;;;;;;;17.57;54.85;100403.25;5056966;28;20067;-70
2022/11/09 00:13:12;;;;;;;4.57;1.80;;;;;;;17.55;54.98;100395.25;5052880;28;20045;-70
2022/11/09 00:15:41;;;;;;;2.55;1.83;;;;;;;17.53;55.14;100394.56;5059428;28;20495;-70
2022/11/09 00:18:08;;;;;;;5.22;2.05;;;;;;;17.53;55.53;100391.84;5056414;28;20107;-70
2022/11/09 00:20:34;;;;;;;4.70;1.83;;;;;;;17.53;55.41;100391.00;5063898;28;20105;-69
2022/11/09 00:23:00;;;;;;;4.03;1.83;;;;;;;17.51;55.42;100399.31;5072464;28;20094;-70
2022/11/09 00:25:30;;;;;;;7.75;2.25;;;;;;;17.52;55.37;100397.44;5072107;28;20036;-70
2022/11/09 00:27:56;;;;;;;4.15;1.85;;;;;;;17.53;55.25;100401.88;5072900;28;20045;-70
2022/11/09 00:30:25;;;;;;;3.70;1.58;;;;;;;17.53;55.27;100391.84;5054304;28;20131;-70
2022/11/09 00:32:52;;;;;;;5.68;2.10;;;;;;;17.53;55.53;100386.44;5072321;28;20505;-70
2022/11/09 00:35:18;;;;;;;3.30;1.85;;;;;;;17.50;55.32;100391.34;5064863;28;20053;-70
2022/11/09 00:37:45;;;;;;;5.40;1.85;;;;;;;17.48;55.63;100405.06;5054757;28;20075;-69
2022/11/09 00:40:12;;;;;;;3.40;1.90;;;;;;;17.46;55.58;100385.38;5054460;28;20135;-69
2022/11/09 00:42:38;;;;;;;6.68;2.05;;;;;;;17.46;55.54;100394.38;5054443;28;20066;-70
2022/11/09 00:45:05;;;;;;;6.57;1.95;;;;;;;17.47;55.76;100397.94;5057708;28;20044;-69
2022/11/09 00:47:32;;;;;;;4.70;2.20;;;;;;;17.48;55.90;100392.34;5067511;28;20041;-69
2022/11/09 00:49:58;;;;;;;3.22;1.80;;;;;;;17.51;55.63;100398.47;5051152;28;20059;-69
2022/11/09 00:52:25;;;;;;;4.25;1.75;;;;;;;17.53;55.60;100393.72;5072789;28;20047;-69
2022/11/09 00:54:52;;;;;;;5.72;1.90;;;;;;;17.54;55.86;100396.28;5071110;28;20045;-70
2022/11/09 00:57:18;;;;;;;4.68;1.67;;;;;;;17.55;56.13;100395.25;5054023;28;20044;-69
2022/11/09 00:59:45;;;;;;;2.67;1.67;;;;;;;17.59;55.89;100402.06;5037182;28;20041;-70
2022/11/09 01:02:12;;;;;;;4.28;1.80;;;;;;;17.60;55.71;100400.19;5042384;28;20040;-69
2022/11/09 01:04:41;;;;;;;5.57;2.05;;;;;;;17.61;55.98;100396.47;5067430;28;20045;-69
2022/11/09 01:07:08;;;;;;;4.03;2.10;;;;;;;17.59;55.78;100403.94;5034111;28;20061;-70
2022/11/09 01:09:36;;;;;;;6.68;2.22;;;;;;;17.58;55.79;100396.78;5042010;28;20069;-69
2022/11/09 01:12:03;;;;;;;4.20;1.75;;;;;;;17.57;55.95;100397.81;5035621;28;20042;-69
2022/11/09 01:14:34;;;;;;;4.07;1.80;;;;;;;17.58;56.10;100396.78;5031034;28;20048;-69
2022/11/09 01:17:02;;;;;;;3.90;1.80;;;;;;;17.54;55.81;100396.28;5046275;28;20087;-69
2022/11/09 01:19:28;;;;;;;4.75;2.00;;;;;;;17.50;55.97;100403.06;5032030;28;20041;-69
2022/11/09 01:21:55;;;;;;;4.38;2.25;;;;;;;17.49;55.77;100412.22;5031545;28;20045;-69
2022/11/09 01:24:23;;;;;;;4.57;1.58;;;;;;;17.46;55.58;100413.38;5040302;28;20102;-69
2022/11/09 01:26:50;;;;;;;6.78;1.98;;;;;;;17.42;56.13;100411.16;5051356;28;20056;-69
2022/11/09 01:29:19;;;;;;;6.22;2.03;;;;;;;17.40;56.19;100408.63;5051229;28;20112;-71
2022/11/09 01:31:47;;;;;;;4.40;1.95;;;;;;;17.39;56.11;100411.50;5051248;28;20041;-69
2022/11/09 01:34:16;;;;;;;6.72;1.85;;;;;;;17.35;56.05;100408.25;5050230;28;20577;-69
2022/11/09 01:36:43;;;;;;;4.85;1.80;;;;;;;17.34;55.69;100411.97;5036668;28;20132;-69
2022/11/09 01:39:09;;;;;;;6.38;2.20;;;;;;;17.33;55.82;100418.44;5030331;28;20352;-69
2022/11/09 01:41:36;;;;;;;4.25;1.65;;;;;;;17.33;56.17;100412.16;5048513;28;20041;-69
2022/11/09 01:44:19;;;;;;;5.85;1.90;;;;;;;17.29;55.92;100416.19;5051521;28;20056;-69
2022/11/09 01:47:06;;;;;;;5.78;1.98;;;;;;;17.28;55.93;100417.22;5049926;28;20391;-69
2022/11/09 01:49:53;;;;;;;4.93;1.88;;;;;;;17.28;56.20;100412.63;5049344;28;20049;-70
2022/11/09 01:52:34;;;;;;;7.93;1.77;;;;;;;17.27;56.01;100412.78;5049495;28;20049;-69
2022/11/09 01:55:07;;;;;;;2.88;1.60;;;;;;;17.24;56.33;100413.13;5049878;28;20103;-69
2022/11/09 01:57:46;;;;;;;5.45;1.80;;;;;;;17.20;55.98;100414.47;5035340;28;20404;-69
2022/11/09 02:00:15;;;;;;;2.50;1.73;;;;;;;17.17;56.02;100414.78;5045407;28;20048;-69
2022/11/09 02:02:49;;;;;;;4.07;1.58;;;;;;;17.15;55.97;100410.38;5051076;28;20084;-69
2022/11/09 02:05:22;;;;;;;5.20;1.92;;;;;;;17.14;56.65;100403.25;5034374;28;20048;-69
2022/11/09 02:07:51;;;;;;;4.32;1.98;;;;;;;17.14;56.10;100405.09;5044852;28;20040;-69
2022/11/09 02:10:32;;;;;;;4.45;1.88;;;;;;;17.10;56.41;100403.72;5051824;28;20052;-70
2022/11/09 02:13:01;;;;;;;5.32;1.88;;;;;;;17.07;56.35;100404.88;5040510;28;20056;-69
2022/11/09 02:15:35;;;;;;;6.28;1.58;;;;;;;17.05;56.36;100390.63;5065352;28;20040;-69
2022/11/09 02:18:09;;;;;;;3.83;1.50;;;;;;;17.05;56.12;100396.03;5052914;28;20037;-69
2022/11/09 02:20:52;;;;;;;7.47;2.05;;;;;;;17.00;56.12;100411.09;5051988;28;20044;-70
2022/11/09 02:23:21;;;;;;;4.55;1.80;;;;;;;16.98;56.57;100413.13;5052891;28;20045;-69
2022/11/09 02:25:53;;;;;;;5.82;1.60;;;;;;;16.97;56.29;100406.00;5055563;28;20040;-70
2022/11/09 02:28:20;;;;;;;7.90;2.28;;;;;;;16.96;56.52;100410.56;5052534;28;20040;-69
2022/11/09 02:30:51;;;;;;;5.57;1.98;;;;;;;16.97;56.21;100416.84;5069336;28;20049;-69
2022/11/09 02:33:18;;;;;;;4.05;2.00;;;;;;;16.96;56.64;100418.72;5032670;28;20045;-69
2022/11/09 02:35:46;;;;;;;6.15;1.80;;;;;;;16.95;56.37;100416.16;5051364;28;20087;-69
2022/11/09 02:38:14;;;;;;;4.95;1.98;;;;;;;16.92;56.32;100409.19;5050433;28;20064;-69
2022/11/09 02:40:45;;;;;;;6.75;2.00;;;;;;;16.92;56.46;100427.34;5036693;28;20052;-69
2022/11/09 02:43:14;;;;;;;5.68;1.85;;;;;;;16.91;56.43;100418.34;5069322;28;20032;-69
2022/11/09 02:45:47;;;;;;;6.15;2.38;;;;;;;16.91;56.47;100417.50;5065923;28;20037;-69
2022/11/09 02:48:14;;;;;;;5.40;1.60;;;;;;;16.89;56.71;100412.22;5032402;28;20049;-68
2022/11/09 02:50:40;;;;;;;4.53;2.22;;;;;;;16.91;56.54;100426.47;5044220;28;20041;-69
2022/11/09 02:53:07;;;;;;;4.68;1.70;;;;;;;16.91;56.47;100426.47;5070249;28;20121;-71
2022/11/09 02:55:41;;;;;;;5.60;2.00;;;;;;;16.93;56.64;100429.88;5052335;28;20120;-69
2022/11/09 02:58:08;;;;;;;5.00;1.73;;;;;;;16.94;56.72;100420.72;5064233;28;20033;-69
2022/11/09 03:00:35;;;;;;;4.28;1.60;;;;;;;16.96;56.59;100416.00;5048819;28;20132;-69
2022/11/09 03:03:03;;;;;;;10.10;1.92;;;;;;;16.97;56.44;100412.28;5048780;28;20041;-70
2022/11/09 03:05:29;;;;;;;6.47;1.75;;;;;;;17.01;56.72;100418.22;5047453;28;20128;-70
2022/11/09 03:08:01;;;;;;;6.05;1.35;;;;;;;17.02;56.72;100407.22;5029389;28;20091;-70
2022/11/09 03:10:30;;;;;;;6.80;1.63;;;;;;;17.05;56.84;100411.47;5031303;28;20041;-70
2022/11/09 03:12:56;;;;;;;4.80;1.60;;;;;;;17.07;56.75;100402.16;5049816;28;20095;-69
2022/11/09 03:15:24;;;;;;;4.60;1.60;;;;;;;17.07;56.71;100395.88;5049736;28;20037;-69
2022/11/09 03:17:50;;;;;;;5.18;1.55;;;;;;;17.08;56.47;100397.59;5042901;28;20599;-70
2022/11/09 03:20:18;;;;;;;4.50;1.70;;;;;;;17.10;56.59;100401.00;5047795;28;20458;-70
2022/11/09 03:22:47;;;;;;;11.13;2.42;;;;;;;17.12;56.46;100409.84;5030262;28;20049;-70
2022/11/09 03:25:18;;;;;;;9.65;2.60;;;;;;;17.13;56.62;100417.81;5042641;28;20140;-69
2022/11/09 03:27:44;;;;;;;6.85;1.88;;;;;;;17.17;56.55;100426.50;5048320;28;20048;-69
2022/11/09 03:30:11;;;;;;;7.85;1.73;;;;;;;17.19;56.49;100429.03;5048835;28;20441;-69
2022/11/09 03:32:39;;;;;;;5.53;1.95;;;;;;;17.21;56.26;100451.44;5049865;28;20045;-69
2022/11/09 03:35:10;;;;;;;4.78;1.50;;;;;;;17.24;56.46;100456.53;5054410;28;20132;-70
2022/11/09 03:37:37;;;;;;;8.82;2.10;;;;;;;17.22;56.08;100453.13;5053799;28;20067;-69
2022/11/09 03:40:05;;;;;;;5.88;1.77;;;;;;;17.21;56.37;100454.16;5052914;28;20037;-69
2022/11/09 03:42:31;;;;;;;9.73;2.20;;;;;;;17.20;56.40;100460.59;5038058;28;20408;-70
2022/11/09 03:45:02;;;;;;;6.25;2.00;;;;;;;17.18;56.25;100460.75;5032444;28;20049;-69
2022/11/09 03:47:29;;;;;;;8.13;1.98;;;;;;;17.18;56.59;100460.75;5033942;28;20095;-72
2022/11/09 03:49:55;;;;;;;9.25;2.03;;;;;;;17.17;56.55;100472.63;5045027;28;20060;-70
2022/11/09 03:52:22;;;;;;;8.13;1.95;;;;;;;17.18;56.09;100474.31;5038181;28;20623;-70
2022/11/09 03:54:49;;;;;;;4.82;1.75;;;;;;;17.17;56.29;100472.63;5052432;28;20360;-70
2022/11/09 03:57:15;;;;;;;5.80;1.90;;;;;;;17.18;56.49;100473.47;5043120;28;20053;-71
2022/11/09 03:59:42;;;;;;;7.05;1.80;;;;;;;17.17;56.40;100472.63;5043665;28;20737;-70
2022/11/09 04:02:08;;;;;;;6.68;2.22;;;;;;;17.18;56.46;100487.88;5053231;28;20449;-70
2022/11/09 04:04:39;;;;;;;5.95;2.00;;;;;;;17.18;56.29;100478.91;5053633;28;20106;-70
2022/11/09 04:07:05;;;;;;;4.90;1.58;;;;;;;17.18;56.15;100484.31;5066696;28;20583;-70
2022/11/09 04:09:32;;;;;;;8.63;2.47;;;;;;;17.16;56.11;100476.34;5073125;28;20070;-69
2022/11/09 04:11:58;;;;;;;5.88;1.85;;;;;;;17.15;56.12;100480.06;5072335;28;20045;-70
2022/11/09 04:14:27;;;;;;;6.30;1.60;;;;;;;17.13;56.39;100488.38;5055026;28;20189;-70
2022/11/09 04:16:53;;;;;;;5.30;1.58;;;;;;;17.12;56.17;100483.09;5054450;28;20048;-70
2022/11/09 04:19:20;;;;;;;7.07;1.98;;;;;;;17.12;56.38;100489.38;5072830;28;20102;-70
2022/11/09 04:21:46;;;;;;;6.57;2.00;;;;;;;17.11;56.13;100486.81;5054247;28;20103;-70
2022/11/09 04:24:18;;;;;;;7.70;1.70;;;;;;;17.09;56.57;100488.81;5047638;28;20036;-71
2022/11/09 04:26:46;;;;;;;13.55;2.38;;;;;;;17.09;56.39;100488.81;5062788;28;20047;-69
2022/11/09 04:29:12;;;;;;;6.18;1.58;;;;;;;17.08;56.67;100484.41;5052658;28;20041;-70
2022/11/09 04:31:39;;;;;;;8.52;1.92;;;;;;;17.07;56.36;100494.41;5052589;28;20495;-71
2022/11/09 04:34:05;;;;;;;8.68;1.67;;;;;;;17.09;56.40;100502.38;5052825;28;20048;-70
2022/11/09 04:36:32;;;;;;;10.60;2.03;;;;;;;17.09;56.48;100507.81;5058691;28;20052;-70
2022/11/09 04:38:59;;;;;;;5.32;1.60;;;;;;;17.08;56.43;100504.25;5072861;28;20537;-71
2022/11/09 04:41:26;;;;;;;6.78;1.90;;;;;;;17.08;56.24;100506.97;5054409;28;20049;-70
2022/11/09 04:43:53;;;;;;;6.13;1.70;;;;;;;17.07;56.13;100515.25;5072067;28;20090;-70
2022/11/09 04:46:19;;;;;;;9.18;1.88;;;;;;;17.03;56.19;100519.28;5066803;28;20064;-71
2022/11/09 04:48:46;;;;;;;10.20;2.60;;;;;;;16.98;56.46;100522.50;5052981;28;20045;-70
2022/11/09 04:51:13;;;;;;;6.72;1.50;;;;;;;16.96;56.70;100520.94;5055469;28;20033;-70
2022/11/09 04:53:39;;;;;;;5.57;1.85;;;;;;;16.93;56.66;100516.69;5069795;28;20033;-70
2022/11/09 04:56:06;;;;;;;6.22;1.75;;;;;;;16.92;56.29;100522.28;5064472;28;20056;-70
2022/11/09 04:58:33;;;;;;;7.25;1.83;;;;;;;16.89;56.38;100514.44;5053881;28;20122;-70
2022/11/09 05:01:12;;;;;;;8.32;1.92;;;;;;;16.86;56.71;100521.03;5047702;28;20095;-70
2022/11/09 05:03:39;;;;;;;8.68;2.08;;;;;;;16.86;56.60;100517.47;5052264;28;21073;-70
2022/11/09 05:08:53;;;;;;;7.85;2.08;;;;;;;16.82;56.54;100517.78;5070227;28;20036;-70
2022/11/09 05:11:21;;;;;;;6.93;1.70;;;;;;;16.79;56.72;100523.53;5071646;28;20487;-70
2022/11/09 05:13:47;;;;;;;8.57;2.10;;;;;;;16.78;56.72;100518.25;5053212;28;20094;-72
2022/11/09 05:16:16;;;;;;;8.15;2.65;;;;;;;16.76;56.63;100517.56;5053716;28;20128;-70
2022/11/09 05:18:43;;;;;;;3.95;1.70;;;;;;;16.75;56.59;100510.44;5070675;28;20045;-71
2022/11/09 05:21:10;;;;;;;9.15;1.90;;;;;;;16.73;56.94;100512.47;5037049;28;20067;-70
2022/11/09 05:26:29;;;;;;;6.28;1.80;;;;;;;16.66;56.76;100508.66;5062202;28;20098;-70
2022/11/09 05:28:57;;;;;;;10.38;2.15;;;;;;;16.61;56.65;100503.69;5043496;28;20052;-70
2022/11/09 05:31:26;;;;;;;6.13;1.80;;;;;;;16.57;57.08;100507.72;5058664;28;20041;-71
2022/11/09 05:33:53;;;;;;;11.00;2.72;;;;;;;16.53;57.09;100507.16;5048368;28;20097;-70
2022/11/09 05:36:21;;;;;;;6.40;1.77;;;;;;;16.50;57.28;100499.34;5070916;28;20040;-69
2022/11/09 05:38:47;;;;;;;6.13;2.05;;;;;;;16.47;57.32;100502.38;5071356;28;20098;-70
2022/11/09 05:41:15;;;;;;;7.47;1.85;;;;;;;16.48;57.39;100506.78;5056660;28;20087;-70
2022/11/09 05:43:43;;;;;;;7.93;2.08;;;;;;;16.46;57.11;100516.94;5051321;28;20044;-69
2022/11/09 05:46:14;;;;;;;5.30;1.98;;;;;;;16.43;57.30;100511.81;5052821;28;20474;-69
2022/11/09 05:48:41;;;;;;;9.13;2.75;;;;;;;16.41;57.53;100508.41;5070907;28;20055;-69
2022/11/09 05:51:10;;;;;;;9.60;1.80;;;;;;;16.39;57.04;100510.44;5069049;28;20052;-69
2022/11/09 05:53:38;;;;;;;7.07;1.77;;;;;;;16.38;57.30;100514.16;5070689;28;20033;-69
2022/11/09 05:56:12;;;;;;;5.40;1.70;;;;;;;16.36;57.35;100516.16;5055731;28;20365;-70
2022/11/09 05:58:40;;;;;;;5.18;2.20;;;;;;;16.35;57.51;100519.00;5050821;28;20056;-69
2022/11/09 06:01:09;;;;;;;7.65;2.40;;;;;;;16.33;57.35;100515.59;5050850;28;20048;-69
2022/11/09 06:03:36;;;;;;;4.68;1.92;;;;;;;16.31;57.12;100525.72;5050777;28;20047;-69
2022/11/09 06:06:05;;;;;;;7.15;1.80;;;;;;;16.27;57.51;100525.19;5050905;28;20048;-69
2022/11/09 06:08:34;;;;;;;8.68;2.05;;;;;;;16.26;57.32;100519.91;5050873;28;20083;-69
2022/11/09 06:11:04;;;;;;;6.43;1.90;;;;;;;16.23;57.41;100521.06;5050163;28;20093;-69
2022/11/09 06:13:31;;;;;;;8.77;2.30;;;;;;;16.21;57.64;100523.09;5050937;28;20045;-69
2022/11/09 06:16:03;;;;;;;7.65;1.85;;;;;;;16.19;57.65;100523.25;5050942;28;20070;-69
2022/11/09 06:18:31;;;;;;;7.78;2.05;;;;;;;16.19;57.33;100517.81;5062182;28;20060;-69
2022/11/09 06:21:00;;;;;;;6.30;1.95;;;;;;;16.17;57.77;100522.53;5052213;28;20048;-70
2022/11/09 06:23:28;;;;;;;6.20;2.75;;;;;;;16.15;57.73;100529.97;5052766;28;20044;-70
2022/11/09 06:26:00;;;;;;;8.73;1.60;;;;;;;16.14;57.83;100525.56;5069447;28;20037;-69
2022/11/09 06:28:27;;;;;;;10.35;2.10;;;;;;;16.13;57.59;100533.84;5069956;28;20044;-70
2022/11/09 06:31:02;;;;;;;6.15;1.83;;;;;;;16.12;57.66;100540.25;5052001;28;20037;-70
2022/11/09 06:33:30;;;;;;;4.88;2.08;;;;;;;16.11;57.56;100544.81;5052977;28;20495;-70
2022/11/09 06:35:58;;;;;;;10.70;2.00;;;;;;;16.11;57.63;100544.81;5069111;28;20044;-71
2022/11/09 06:38:25;;;;;;;6.95;2.30;;;;;;;16.11;58.04;100542.13;5070812;28;20402;-69
2022/11/09 06:40:54;;;;;;;6.35;2.20;;;;;;;16.11;58.16;100546.69;5070443;28;20109;-69
2022/11/09 06:43:21;;;;;;;8.00;2.17;;;;;;;16.11;58.06;100544.81;5071190;28;20090;-70
2022/11/09 06:45:49;;;;;;;9.63;1.80;;;;;;;16.11;57.90;100547.53;5055663;28;20044;-69
2022/11/09 06:48:15;;;;;;;5.38;2.22;;;;;;;16.11;57.87;100555.66;5050627;28;20037;-69
2022/11/09 06:50:42;;;;;;;6.00;2.13;;;;;;;16.09;57.65;100560.38;5050648;28;20103;-69
2022/11/09 06:53:11;;;;;;;12.85;2.20;;;;;;;16.05;58.04;100552.69;5050473;28;20400;-69
2022/11/09 06:55:42;;;;;;;9.25;2.63;;;;;;;16.04;57.80;100556.41;5032826;28;20098;-70
2022/11/09 06:58:17;;;;;;;13.82;2.92;;;;;;;16.01;57.65;100560.28;5052547;28;20052;-70
2022/11/09 07:00:44;;;;;;;6.47;2.00;;;;;;;15.99;58.01;100559.56;5048031;28;20041;-70
2022/11/09 07:03:15;;;;;;;9.48;2.22;;;;;;;15.95;58.01;100557.31;5031122;28;20096;-70
2022/11/09 07:05:44;;;;;;;10.82;2.50;;;;;;;15.92;58.31;100557.63;5030715;28;20041;-70
2022/11/09 07:08:11;;;;;;;11.30;2.13;;;;;;;15.92;58.05;100568.47;5029910;28;20187;-71
2022/11/09 07:10:38;;;;;;;6.07;2.13;;;;;;;15.91;58.00;100566.75;5032378;28;20049;-70
2022/11/09 07:13:06;;;;;;;7.13;2.45;;;;;;;15.90;58.34;100568.59;5049016;28;20090;-70
2022/11/09 07:15:34;;;;;;;8.25;2.20;;;;;;;15.88;58.44;100571.47;5052782;28;20060;-70
2022/11/09 07:18:03;;;;;;;9.73;2.22;;;;;;;15.85;58.58;100571.75;5052505;28;20061;-69
2022/11/09 07:20:30;;;;;;;7.00;1.88;;;;;;;15.83;58.34;100578.34;5052121;28;20391;-70
2022/11/09 07:22:57;;;;;;;9.45;2.28;;;;;;;15.82;58.35;100573.91;5037738;28;20081;-70
2022/11/09 07:25:26;;;;;;;6.32;2.22;;;;;;;15.80;58.53;100574.06;5034313;28;20674;-69
2022/11/09 07:27:52;;;;;;;10.10;1.98;;;;;;;15.78;58.64;100578.78;5034012;28;20045;-70
2022/11/09 07:30:19;;;;;;;6.72;1.90;;;;;;;15.77;58.54;100584.34;5033907;28;20033;-70
2022/11/09 07:32:45;;;;;;;5.70;1.92;;;;;;;15.77;58.47;100585.19;5034752;28;20099;-69
2022/11/09 07:35:33;;;;;;;8.95;2.00;;;;;;;15.79;58.62;100588.59;5034008;28;20069;-70
2022/11/09 07:38:00;;;;;;;9.23;2.30;;;;;;;15.82;59.01;100582.91;5033735;28;20458;-70
2022/11/09 07:40:28;;;;;;;7.55;2.05;;;;;;;15.86;58.92;100581.59;5033748;28;20070;-70
2022/11/09 07:43:03;;;;;;;11.75;2.05;;;;;;;15.94;59.04;100583.56;5034702;28;20037;-71
2022/11/09 07:45:35;;;;;;;12.35;2.80;;;;;;;16.02;59.15;100586.38;5042102;28;20131;-70
2022/11/09 07:48:04;;;;;;;8.38;2.67;;;;;;;16.11;58.92;100592.72;5051950;28;20398;-71
2022/11/09 07:50:32;;;;;;;8.60;2.08;;;;;;;16.20;59.21;100587.25;5053516;28;20087;-70
2022/11/09 07:53:00;;;;;;;8.55;1.58;;;;;;;16.33;59.18;100588.75;5038338;28;20040;-70
2022/11/09 07:55:32;;;;;;;7.82;2.40;;;;;;;16.42;58.85;100594.16;5045387;28;20045;-70
2022/11/09 07:58:01;;;;;;;7.15;2.55;;;;;;;16.48;58.97;100592.69;5053539;28;20040;-70
2022/11/09 08:00:30;;;;;;;6.10;2.00;;;;;;;16.52;58.67;100597.63;5051881;28;20041;-70
2022/11/09 08:02:56;;;;;;;10.57;2.20;;;;;;;16.58;58.67;100607.00;5052673;28;20045;-70
2022/11/09 08:05:23;;;;;;;6.40;2.13;;;;;;;16.63;58.34;100593.00;5053415;28;20487;-70
2022/11/09 08:07:58;;;;;;;7.90;2.03;;;;;;;16.63;58.66;100601.97;5053226;28;20052;-70
2022/11/09 08:10:26;;;;;;;8.23;2.00;;;;;;;16.63;58.65;100615.53;5053217;28;20111;-70
2022/11/09 08:12:54;;;;;;;5.45;2.30;;;;;;;16.66;58.30;100614.41;5051390;28;20044;-70
2022/11/09 08:15:23;;;;;;;8.15;1.92;;;;;;;16.70;58.61;100610.38;5050120;28;20500;-70
2022/11/09 08:17:49;;;;;;;4.93;1.63;;;;;;;16.73;58.68;100618.22;5049740;28;20036;-70
2022/11/09 08:20:17;;;;;;;5.32;2.17;;;;;;;16.76;58.25;100615.19;5032435;28;20045;-71
2022/11/09 08:22:45;;;;;;;5.18;2.00;;;;;;;16.79;58.49;100621.16;5033393;28;20048;-72
2022/11/09 08:25:16;;;;;;;6.40;1.88;;;;;;;16.78;58.11;100622.16;5035515;28;20499;-72
2022/11/09 08:27:42;;;;;;;9.40;2.42;;;;;;;16.78;58.34;100632.16;5052156;28;20458;-72
2022/11/09 08:30:13;;;;;;;8.38;2.10;;;;;;;16.78;58.27;100621.31;5052848;28;20040;-68
2022/11/09 08:32:41;;;;;;;8.25;1.95;;;;;;;16.81;58.52;100640.00;5052729;28;20372;-68
2022/11/09 08:35:11;;;;;;;7.57;1.90;;;;;;;16.82;58.52;100637.13;5053103;28;20040;-67
2022/11/09 08:37:38;;;;;;;6.65;2.05;;;;;;;16.85;58.44;100638.69;5041141;28;20183;-67
2022/11/09 08:40:06;;;;;;;13.85;2.25;;;;;;;16.88;58.52;100637.50;5031518;28;20466;-68
2022/11/09 08:42:32;;;;;;;7.50;2.25;;;;;;;16.93;58.55;100635.19;5031155;28;20038;-67
2022/11/09 08:45:00;;;;;;;7.68;2.20;;;;;;;16.98;58.61;100647.28;5031176;28;20519;-67
2022/11/09 08:47:27;;;;;;;6.78;1.85;;;;;;;17.02;58.46;100635.09;5030994;28;20046;-67
2022/11/09 08:49:54;;;;;;;6.75;1.75;;;;;;;17.06;58.17;100644.63;5030634;28;20049;-68
2022/11/09 08:52:21;;;;;;;7.15;1.60;;;;;;;17.13;58.33;100634.03;5030757;28;20056;-68
2022/11/09 08:54:47;;;;;;;4.32;1.70;;;;;;;17.17;58.10;100637.31;5031587;28;20091;-68
2022/11/09 08:57:17;;;;;;;5.57;1.60;;;;;;;17.21;57.90;100638.69;5032596;28;20041;-68
2022/11/09 08:59:45;;;;;;;5.63;1.70;;;;;;;17.29;58.22;100628.75;5042696;28;20408;-68
2022/11/09 09:02:12;;;;;;;7.20;2.13;;;;;;;17.36;57.76;100637.13;5052067;28;20568;-67
2022/11/09 09:04:43;;;;;;;6.72;1.88;;;;;;;17.46;58.21;100636.00;5052482;28;20063;-72
2022/11/09 09:07:09;;;;;;;7.88;2.05;;;;;;;17.57;57.78;100637.63;5065764;28;20526;-71
2022/11/09 09:09:39;;;;;;;7.30;1.75;;;;;;;17.67;58.02;100637.53;5071538;28;20093;-70
2022/11/09 09:12:07;;;;;;;9.82;2.10;;;;;;;17.77;57.66;100643.72;5071723;28;20049;-71
2022/11/09 09:14:38;;;;;;;6.18;1.60;;;;;;;17.89;57.31;100637.03;5060253;28;20043;-71
2022/11/09 09:17:04;;;;;;;6.45;2.30;;;;;;;17.99;57.29;100636.91;5051896;28;20041;-72
2022/11/09 09:19:31;;;;;;;4.88;2.03;;;;;;;18.04;56.86;100635.41;5051784;28;20103;-72
2022/11/09 09:21:58;;;;;;;5.25;1.90;;;;;;;18.15;57.14;100630.69;5051589;28;20061;-72
2022/11/09 09:24:29;;;;;;;6.47;2.00;;;;;;;18.26;57.08;100644.00;5051785;28;20036;-73
2022/11/09 09:26:55;;;;;;;7.07;1.95;;;;;;;18.36;56.45;100647.44;5051662;28;20040;-73
2022/11/09 09:29:22;;;;;;;8.48;2.47;;;;;;;18.45;56.70;100657.31;5051481;28;20510;-73
2022/11/09 09:31:49;;;;;;;6.50;1.67;;;;;;;18.56;56.21;100651.59;5050402;28;20043;-72
2022/11/09 09:34:17;;;;;;;8.48;1.90;;;;;;;18.66;56.33;100657.78;5051366;28;20510;-73
2022/11/09 09:36:43;;;;;;;7.50;1.77;;;;;;;18.74;55.89;100654.25;5051424;28;20131;-73
2022/11/09 09:39:14;;;;;;;6.65;1.77;;;;;;;18.78;55.77;100658.34;5051180;28;20127;-71
2022/11/09 09:42:03;;;;;;;7.03;1.83;;;;;;;18.85;55.34;100667.53;5062560;28;20040;-69
2022/11/09 09:44:45;;;;;;;4.55;1.95;;;;;;;18.93;55.17;100659.38;5068352;28;20494;-70
2022/11/09 09:47:21;;;;;;;7.20;1.85;;;;;;;19.00;54.97;100654.97;5071487;28;20098;-69
2022/11/09 09:50:12;;;;;;;4.47;2.00;;;;;;;19.07;55.06;100657.00;5071460;28;20040;-70
2022/11/09 09:52:44;;;;;;;8.02;2.55;;;;;;;19.11;55.02;100677.44;5069740;28;20042;-70
2022/11/09 09:55:41;;;;;;;11.07;1.85;;;;;;;19.14;54.42;100666.22;5071918;28;20048;-70
2022/11/09 09:58:15;;;;;;;7.03;2.38;;;;;;;19.15;54.42;100679.66;5053475;28;20056;-70
2022/11/09 10:00:42;;;;;;;4.32;2.08;;;;;;;19.17;53.97;100682.19;5069449;28;20079;-71
2022/11/09 10:03:19;;;;;;;6.55;1.80;;;;;;;19.14;54.12;100682.53;5071600;28;20036;-70
2022/11/09 10:05:57;;;;;;;7.57;2.28;;;;;;;19.18;53.98;100679.31;5071464;28;20040;-70
2022/11/09 10:08:45;;;;;;;9.50;2.35;;;;;;;19.28;54.22;100687.31;5070957;28;20102;-72
2022/11/09 10:11:46;;;;;;;6.60;2.28;;;;;;;19.38;54.25;100679.00;5071007;28;20503;-73
2022/11/09 10:17:08;;;;;;;5.50;1.73;;;;;;;19.51;53.37;100680.22;5070957;28;20040;-72
2022/11/09 10:19:49;;;;;;;5.63;1.73;;;;;;;19.57;53.53;100682.28;5069557;28;20048;-73
2022/11/09 10:22:25;;;;;;;6.38;2.47;;;;;;;19.66;53.47;100689.41;5068932;28;20045;-72
2022/11/09 10:25:14;;;;;;;9.02;1.90;;;;;;;19.77;53.43;100680.03;5069219;28;20098;-73
2022/11/09 10:28:06;;;;;;;6.60;1.90;;;;;;;19.95;53.64;100682.56;5051512;28;20048;-73
2022/11/09 10:30:39;;;;;;;7.03;1.90;;;;;;;20.05;53.37;100683.22;5070525;28;20045;-72
2022/11/09 10:33:08;;;;;;;6.25;1.90;;;;;;;20.11;53.08;100676.25;5068570;28;20071;-73
2022/11/09 10:35:52;;;;;;;10.15;2.38;;;;;;;20.17;52.72;100679.13;5051874;28;20094;-71
2022/11/09 10:38:28;;;;;;;6.28;2.00;;;;;;;20.23;52.57;100680.28;5050793;28;20103;-72
2022/11/09 10:41:38;;;;;;;8.80;2.50;;;;;;;20.33;52.30;100685.53;5050914;28;20411;-72
2022/11/09 10:44:25;;;;;;;8.55;1.60;;;;;;;20.40;52.09;100686.56;5056043;28;20048;-71
2022/11/09 10:47:13;;;;;;;8.32;1.90;;;;;;;20.43;51.84;100689.81;5056045;28;20067;-71
2022/11/09 10:50:06;;;;;;;4.90;1.55;;;;;;;20.49;51.83;100700.00;5055303;28;20056;-71
2022/11/09 10:52:52;;;;;;;6.22;1.90;;;;;;;20.57;51.62;100686.31;5054943;28;20099;-71
2022/11/09 10:55:48;;;;;;;8.00;1.95;;;;;;;20.61;51.28;100686.81;5055290;28;20044;-71
2022/11/09 10:58:39;;;;;;;5.72;1.98;;;;;;;20.66;51.09;100689.88;5055019;28;20060;-73
2022/11/09 11:01:35;;;;;;;4.43;1.48;;;;;;;20.70;50.96;100696.66;5054805;28;20411;-70
2022/11/09 11:04:25;;;;;;;7.30;1.98;;;;;;;20.72;50.86;100697.34;5054292;28;20060;-72
2022/11/09 11:07:18;;;;;;;5.75;1.52;;;;;;;20.75;50.67;100698.84;5067122;28;20098;-72
2022/11/09 11:10:14;;;;;;;5.05;1.65;;;;;;;20.77;50.58;100699.53;5074448;28;20141;-72
2022/11/09 11:12:59;;;;;;;5.13;1.67;;;;;;;20.74;50.15;100702.63;5060020;28;20170;-71
2022/11/09 11:15:51;;;;;;;5.27;1.43;;;;;;;20.61;50.25;100709.50;5074027;28;20056;-72
2022/11/09 11:18:36;;;;;;;6.82;1.80;;;;;;;20.51;49.89;100706.13;5055864;28;20306;-71
2022/11/09 11:21:23;;;;;;;6.00;1.80;;;;;;;20.36;50.01;100707.00;5054028;28;20415;-71
2022/11/09 11:24:20;;;;;;;6.57;1.67;;;;;;;20.22;49.61;100712.16;5054413;28;20243;-72
2022/11/09 11:27:15;;;;;;;8.10;1.75;;;;;;;20.06;49.67;100714.91;5054403;28;20051;-71
2022/11/09 11:30:14;;;;;;;3.75;1.50;;;;;;;19.92;49.58;100712.88;5054997;28;20482;-71
2022/11/09 11:32:59;;;;;;;6.18;1.50;;;;;;;19.89;49.86;100703.19;5054016;28;20131;-71
2022/11/09 11:35:52;;;;;;;6.25;1.30;;;;;;;19.92;49.83;100704.72;5054179;28;20052;-71
2022/11/09 11:38:52;;;;;;;3.20;1.13;;;;;;;19.96;49.94;100711.53;5053815;28;20521;-72
2022/11/09 11:42:04;;;;;;;4.90;1.45;;;;;;;19.93;49.75;100717.31;5054754;28;20153;-72
2022/11/09 11:45:38;;;;;;;5.22;1.70;;;;;;;19.83;49.68;100719.38;5038846;28;20142;-72
2022/11/09 11:48:48;;;;;;;7.13;2.08;;;;;;;19.73;49.78;100716.84;5018283;28;20107;-72
2022/11/09 11:52:22;;;;;;;5.82;1.60;;;;;;;19.64;49.81;100715.97;5053680;28;20557;-72
2022/11/09 11:55:25;;;;;;;7.03;1.33;;;;;;;19.61;49.99;100721.78;5053092;28;20055;-72